sensor_id;sensor_type;location;lat;lon;timestamp;temperature;humidity
5520;DHT22;2782;52.362;10.012;2023-12-20T00:00:50;18.90;66.50
5520;DHT22;2782;52.362;10.012;2023-12-20T00:01:52;18.90;66.50
5520;DHT22;2782;52.362;10.012;2023-12-20T00:02:53;18.90;66.50
5520;DHT22;2782;52.362;10.012;2023-12-20T00:03:53;18.90;66.50
5520;DHT22;2782;52.362;10.012;2023-12-20T00:04:55;18.90;66.50
5520;DHT22;2782;52.362;10.012;2023-12-20T00:05:55;18.90;66.50
5520;DHT22;2782;52.362;10.012;2023-12-20T00:06:56;18.90;66.50
5520;DHT22;2782;52.362;10.012;2023-12-20T00:07:58;18.90;66.50
5520;DHT22;2782;52.362;10.012;2023-12-20T00:08:58;18.90;66.50
5520;DHT22;2782;52.362;10.012;2023-12-20T00:10:00;18.80;66.40
5520;DHT22;2782;52.362;10.012;2023-12-20T00:11:00;18.80;66.40
5520;DHT22;2782;52.362;10.012;2023-12-20T00:12:02;18.90;66.50
5520;DHT22;2782;52.362;10.012;2023-12-20T00:13:04;18.90;66.50
5520;DHT22;2782;52.362;10.012;2023-12-20T00:14:07;18.80;66.40
5520;DHT22;2782;52.362;10.012;2023-12-20T00:15:08;18.80;66.40
5520;DHT22;2782;52.362;10.012;2023-12-20T00:16:10;18.80;66.40
5520;DHT22;2782;52.362;10.012;2023-12-20T00:17:10;18.80;66.40
5520;DHT22;2782;52.362;10.012;2023-12-20T00:18:12;18.80;66.50
5520;DHT22;2782;52.362;10.012;2023-12-20T00:19:12;18.80;66.50
5520;DHT22;2782;52.362;10.012;2023-12-20T00:20:14;18.80;66.50
5520;DHT22;2782;52.362;10.012;2023-12-20T00:21:15;18.80;66.50
5520;DHT22;2782;52.362;10.012;2023-12-20T00:22:16;18.80;66.40
5520;DHT22;2782;52.362;10.012;2023-12-20T00:23:17;18.80;66.40
5520;DHT22;2782;52.362;10.012;2023-12-20T00:24:18;18.80;66.40
5520;DHT22;2782;52.362;10.012;2023-12-20T00:25:19;18.80;66.30
5520;DHT22;2782;52.362;10.012;2023-12-20T00:26:20;18.70;66.30
5520;DHT22;2782;52.362;10.012;2023-12-20T00:27:21;18.70;66.40
5520;DHT22;2782;52.362;10.012;2023-12-20T00:28:23;18.70;66.30
5520;DHT22;2782;52.362;10.012;2023-12-20T00:29:25;18.70;66.30
5520;DHT22;2782;52.362;10.012;2023-12-20T00:30:26;18.70;66.30
5520;DHT22;2782;52.362;10.012;2023-12-20T00:31:26;18.70;66.30
5520;DHT22;2782;52.362;10.012;2023-12-20T00:32:28;18.70;66.20
5520;DHT22;2782;52.362;10.012;2023-12-20T00:33:28;18.80;66.40
5520;DHT22;2782;52.362;10.012;2023-12-20T00:34:30;18.70;66.90
5520;DHT22;2782;52.362;10.012;2023-12-20T00:35:31;18.70;66.20
5520;DHT22;2782;52.362;10.012;2023-12-20T00:36:32;18.70;66.20
5520;DHT22;2782;52.362;10.012;2023-12-20T00:37:33;18.70;66.20
5520;DHT22;2782;52.362;10.012;2023-12-20T00:38:34;18.70;66.20
5520;DHT22;2782;52.362;10.012;2023-12-20T00:39:35;18.70;66.20
5520;DHT22;2782;52.362;10.012;2023-12-20T00:40:35;18.70;66.30
5520;DHT22;2782;52.362;10.012;2023-12-20T00:41:37;18.70;66.20
5520;DHT22;2782;52.362;10.012;2023-12-20T00:42:38;18.70;66.20
5520;DHT22;2782;52.362;10.012;2023-12-20T00:43:40;18.70;66.20
5520;DHT22;2782;52.362;10.012;2023-12-20T00:44:41;18.70;66.20
5520;DHT22;2782;52.362;10.012;2023-12-20T00:45:42;18.70;66.20
5520;DHT22;2782;52.362;10.012;2023-12-20T00:46:43;18.60;66.10
5520;DHT22;2782;52.362;10.012;2023-12-20T00:47:45;18.60;66.10
5520;DHT22;2782;52.362;10.012;2023-12-20T00:48:46;18.60;66.10
5520;DHT22;2782;52.362;10.012;2023-12-20T00:49:47;18.60;66.10
5520;DHT22;2782;52.362;10.012;2023-12-20T00:50:48;18.60;66.10
5520;DHT22;2782;52.362;10.012;2023-12-20T00:51:49;18.60;66.10
5520;DHT22;2782;52.362;10.012;2023-12-20T00:52:53;18.60;66.10
5520;DHT22;2782;52.362;10.012;2023-12-20T00:53:55;18.60;66.00
5520;DHT22;2782;52.362;10.012;2023-12-20T00:54:56;18.60;66.00
5520;DHT22;2782;52.362;10.012;2023-12-20T00:55:57;18.60;66.00
5520;DHT22;2782;52.362;10.012;2023-12-20T00:56:59;18.60;66.00
5520;DHT22;2782;52.362;10.012;2023-12-20T00:58:00;18.60;66.00
5520;DHT22;2782;52.362;10.012;2023-12-20T00:59:03;18.60;66.00
5520;DHT22;2782;52.362;10.012;2023-12-20T01:00:04;18.60;66.10
5520;DHT22;2782;52.362;10.012;2023-12-20T01:01:06;18.60;66.00
5520;DHT22;2782;52.362;10.012;2023-12-20T01:02:07;18.60;66.00
5520;DHT22;2782;52.362;10.012;2023-12-20T01:03:09;18.60;66.00
5520;DHT22;2782;52.362;10.012;2023-12-20T01:04:10;18.60;66.00
5520;DHT22;2782;52.362;10.012;2023-12-20T01:05:10;18.50;65.90
5520;DHT22;2782;52.362;10.012;2023-12-20T01:06:12;18.50;65.90
5520;DHT22;2782;52.362;10.012;2023-12-20T01:07:12;18.50;65.90
5520;DHT22;2782;52.362;10.012;2023-12-20T01:08:14;18.50;65.90
5520;DHT22;2782;52.362;10.012;2023-12-20T01:09:15;18.50;65.90
5520;DHT22;2782;52.362;10.012;2023-12-20T01:10:16;18.50;65.90
5520;DHT22;2782;52.362;10.012;2023-12-20T01:11:17;18.50;65.90
5520;DHT22;2782;52.362;10.012;2023-12-20T01:12:19;18.50;65.90
5520;DHT22;2782;52.362;10.012;2023-12-20T01:13:20;18.50;65.90
5520;DHT22;2782;52.362;10.012;2023-12-20T01:14:23;18.50;65.80
5520;DHT22;2782;52.362;10.012;2023-12-20T01:15:24;18.50;65.90
5520;DHT22;2782;52.362;10.012;2023-12-20T01:16:25;18.50;65.90
5520;DHT22;2782;52.362;10.012;2023-12-20T01:17:26;18.50;65.90
5520;DHT22;2782;52.362;10.012;2023-12-20T01:18:27;18.50;65.80
5520;DHT22;2782;52.362;10.012;2023-12-20T01:19:28;18.50;65.80
5520;DHT22;2782;52.362;10.012;2023-12-20T01:20:30;18.50;65.80
5520;DHT22;2782;52.362;10.012;2023-12-20T01:21:31;18.50;65.80
5520;DHT22;2782;52.362;10.012;2023-12-20T01:22:32;18.50;65.90
5520;DHT22;2782;52.362;10.012;2023-12-20T01:23:36;18.50;65.90
5520;DHT22;2782;52.362;10.012;2023-12-20T01:24:36;18.40;65.70
5520;DHT22;2782;52.362;10.012;2023-12-20T01:25:38;18.40;65.70
5520;DHT22;2782;52.362;10.012;2023-12-20T01:26:39;18.40;65.70
5520;DHT22;2782;52.362;10.012;2023-12-20T01:27:41;18.40;65.80
5520;DHT22;2782;52.362;10.012;2023-12-20T01:28:41;18.40;65.80
5520;DHT22;2782;52.362;10.012;2023-12-20T01:29:44;18.40;65.70
5520;DHT22;2782;52.362;10.012;2023-12-20T01:30:45;18.40;65.80
5520;DHT22;2782;52.362;10.012;2023-12-20T01:31:47;18.40;65.80
5520;DHT22;2782;52.362;10.012;2023-12-20T01:32:47;18.40;65.80
5520;DHT22;2782;52.362;10.012;2023-12-20T01:33:49;18.40;65.80
5520;DHT22;2782;52.362;10.012;2023-12-20T01:34:50;18.40;65.80
5520;DHT22;2782;52.362;10.012;2023-12-20T01:35:51;18.40;65.80
5520;DHT22;2782;52.362;10.012;2023-12-20T01:36:52;18.40;65.80
5520;DHT22;2782;52.362;10.012;2023-12-20T01:37:53;18.40;65.80
5520;DHT22;2782;52.362;10.012;2023-12-20T01:38:57;18.40;65.80
5520;DHT22;2782;52.362;10.012;2023-12-20T01:39:58;18.40;65.70
5520;DHT22;2782;52.362;10.012;2023-12-20T01:40:59;18.40;65.80
5520;DHT22;2782;52.362;10.012;2023-12-20T01:42:00;18.40;65.80
5520;DHT22;2782;52.362;10.012;2023-12-20T01:43:04;18.40;65.80
5520;DHT22;2782;52.362;10.012;2023-12-20T01:44:06;18.40;65.80
5520;DHT22;2782;52.362;10.012;2023-12-20T01:45:09;18.40;65.80
5520;DHT22;2782;52.362;10.012;2023-12-20T01:46:10;18.40;65.70
5520;DHT22;2782;52.362;10.012;2023-12-20T01:47:12;18.30;65.70
5520;DHT22;2782;52.362;10.012;2023-12-20T01:48:15;18.30;65.70
5520;DHT22;2782;52.362;10.012;2023-12-20T01:49:16;18.30;65.60
5520;DHT22;2782;52.362;10.012;2023-12-20T01:50:18;18.30;65.70
5520;DHT22;2782;52.362;10.012;2023-12-20T01:51:19;18.30;65.60
5520;DHT22;2782;52.362;10.012;2023-12-20T01:52:22;18.30;65.60
5520;DHT22;2782;52.362;10.012;2023-12-20T01:53:24;18.30;65.70
5520;DHT22;2782;52.362;10.012;2023-12-20T01:54:26;18.30;65.60
5520;DHT22;2782;52.362;10.012;2023-12-20T01:55:29;18.30;65.60
5520;DHT22;2782;52.362;10.012;2023-12-20T01:56:32;18.30;65.60
5520;DHT22;2782;52.362;10.012;2023-12-20T01:57:34;18.30;65.70
5520;DHT22;2782;52.362;10.012;2023-12-20T01:58:35;18.30;65.60
5520;DHT22;2782;52.362;10.012;2023-12-20T01:59:40;18.30;65.60
5520;DHT22;2782;52.362;10.012;2023-12-20T02:00:42;18.30;65.60
5520;DHT22;2782;52.362;10.012;2023-12-20T02:01:44;18.30;65.60
5520;DHT22;2782;52.362;10.012;2023-12-20T02:02:45;18.30;65.60
5520;DHT22;2782;52.362;10.012;2023-12-20T02:03:47;18.30;65.60
5520;DHT22;2782;52.362;10.012;2023-12-20T02:04:48;18.30;65.60
5520;DHT22;2782;52.362;10.012;2023-12-20T02:05:51;18.20;65.50
5520;DHT22;2782;52.362;10.012;2023-12-20T02:06:53;18.20;65.50
5520;DHT22;2782;52.362;10.012;2023-12-20T02:07:55;18.30;65.60
5520;DHT22;2782;52.362;10.012;2023-12-20T02:08:56;18.20;65.50
5520;DHT22;2782;52.362;10.012;2023-12-20T02:09:57;18.30;65.60
5520;DHT22;2782;52.362;10.012;2023-12-20T02:10:59;18.20;65.50
5520;DHT22;2782;52.362;10.012;2023-12-20T02:12:00;18.20;65.50
5520;DHT22;2782;52.362;10.012;2023-12-20T02:13:03;18.20;65.50
5520;DHT22;2782;52.362;10.012;2023-12-20T02:14:04;18.20;65.50
5520;DHT22;2782;52.362;10.012;2023-12-20T02:15:07;18.20;65.50
5520;DHT22;2782;52.362;10.012;2023-12-20T02:16:09;18.20;65.50
5520;DHT22;2782;52.362;10.012;2023-12-20T02:17:10;18.20;65.50
5520;DHT22;2782;52.362;10.012;2023-12-20T02:18:11;18.20;65.50
5520;DHT22;2782;52.362;10.012;2023-12-20T02:19:15;18.20;65.40
5520;DHT22;2782;52.362;10.012;2023-12-20T02:20:18;18.20;65.50
5520;DHT22;2782;52.362;10.012;2023-12-20T02:21:25;18.20;65.50
5520;DHT22;2782;52.362;10.012;2023-12-20T02:22:27;18.20;65.50
5520;DHT22;2782;52.362;10.012;2023-12-20T02:23:27;18.20;65.50
5520;DHT22;2782;52.362;10.012;2023-12-20T02:24:29;18.20;65.40
5520;DHT22;2782;52.362;10.012;2023-12-20T02:25:29;18.20;65.40
5520;DHT22;2782;52.362;10.012;2023-12-20T02:26:32;18.20;65.40
5520;DHT22;2782;52.362;10.012;2023-12-20T02:27:34;18.20;65.40
5520;DHT22;2782;52.362;10.012;2023-12-20T02:28:35;18.20;65.40
5520;DHT22;2782;52.362;10.012;2023-12-20T02:29:37;18.10;66.00
5520;DHT22;2782;52.362;10.012;2023-12-20T02:30:37;18.20;65.40
5520;DHT22;2782;52.362;10.012;2023-12-20T02:31:39;18.10;65.30
5520;DHT22;2782;52.362;10.012;2023-12-20T02:32:40;18.20;65.40
5520;DHT22;2782;52.362;10.012;2023-12-20T02:33:40;18.10;65.30
5520;DHT22;2782;52.362;10.012;2023-12-20T02:34:42;18.20;65.40
5520;DHT22;2782;52.362;10.012;2023-12-20T02:35:43;18.10;65.30
5520;DHT22;2782;52.362;10.012;2023-12-20T02:36:46;18.10;65.30
5520;DHT22;2782;52.362;10.012;2023-12-20T02:37:46;18.10;65.30
5520;DHT22;2782;52.362;10.012;2023-12-20T02:38:48;18.10;65.30
5520;DHT22;2782;52.362;10.012;2023-12-20T02:39:48;18.10;65.30
5520;DHT22;2782;52.362;10.012;2023-12-20T02:40:49;18.10;65.30
5520;DHT22;2782;52.362;10.012;2023-12-20T02:41:51;18.10;65.30
5520;DHT22;2782;52.362;10.012;2023-12-20T02:42:51;18.10;65.30
5520;DHT22;2782;52.362;10.012;2023-12-20T02:43:52;18.10;65.30
5520;DHT22;2782;52.362;10.012;2023-12-20T02:44:54;18.10;65.30
5520;DHT22;2782;52.362;10.012;2023-12-20T02:45:54;18.10;65.30
5520;DHT22;2782;52.362;10.012;2023-12-20T02:46:56;18.10;65.30
5520;DHT22;2782;52.362;10.012;2023-12-20T02:47:56;18.10;65.30
5520;DHT22;2782;52.362;10.012;2023-12-20T02:48:58;18.10;65.30
5520;DHT22;2782;52.362;10.012;2023-12-20T02:49:59;18.10;65.30
5520;DHT22;2782;52.362;10.012;2023-12-20T02:51:00;18.10;65.30
5520;DHT22;2782;52.362;10.012;2023-12-20T02:52:03;18.10;65.30
5520;DHT22;2782;52.362;10.012;2023-12-20T02:53:05;18.10;65.30
5520;DHT22;2782;52.362;10.012;2023-12-20T02:54:05;18.10;65.30
5520;DHT22;2782;52.362;10.012;2023-12-20T02:55:07;18.10;65.30
5520;DHT22;2782;52.362;10.012;2023-12-20T02:56:08;18.10;65.30
5520;DHT22;2782;52.362;10.012;2023-12-20T02:57:09;18.10;65.30
5520;DHT22;2782;52.362;10.012;2023-12-20T02:58:10;18.10;65.30
5520;DHT22;2782;52.362;10.012;2023-12-20T02:59:13;18.10;65.30
5520;DHT22;2782;52.362;10.012;2023-12-20T03:00:14;18.10;65.30
5520;DHT22;2782;52.362;10.012;2023-12-20T03:04:15;18.00;65.20
5520;DHT22;2782;52.362;10.012;2023-12-20T03:05:17;18.00;65.20
5520;DHT22;2782;52.362;10.012;2023-12-20T03:06:18;18.00;65.20
5520;DHT22;2782;52.362;10.012;2023-12-20T03:07:21;18.00;65.30
5520;DHT22;2782;52.362;10.012;2023-12-20T03:08:22;18.00;65.30
5520;DHT22;2782;52.362;10.012;2023-12-20T03:09:23;18.00;65.30
5520;DHT22;2782;52.362;10.012;2023-12-20T03:10:24;18.00;65.30
5520;DHT22;2782;52.362;10.012;2023-12-20T03:11:26;18.00;65.40
5520;DHT22;2782;52.362;10.012;2023-12-20T03:12:27;18.00;65.30
5520;DHT22;2782;52.362;10.012;2023-12-20T03:13:29;18.00;65.30
5520;DHT22;2782;52.362;10.012;2023-12-20T03:14:30;18.00;65.30
5520;DHT22;2782;52.362;10.012;2023-12-20T03:15:31;18.00;65.30
5520;DHT22;2782;52.362;10.012;2023-12-20T03:16:32;18.00;65.30
5520;DHT22;2782;52.362;10.012;2023-12-20T03:17:33;18.00;65.30
5520;DHT22;2782;52.362;10.012;2023-12-20T03:18:34;18.00;65.30
5520;DHT22;2782;52.362;10.012;2023-12-20T03:19:35;18.00;65.20
5520;DHT22;2782;52.362;10.012;2023-12-20T03:20:36;18.00;65.20
5520;DHT22;2782;52.362;10.012;2023-12-20T03:21:38;18.00;65.20
5520;DHT22;2782;52.362;10.012;2023-12-20T03:22:40;18.00;65.30
5520;DHT22;2782;52.362;10.012;2023-12-20T03:23:41;17.90;65.10
5520;DHT22;2782;52.362;10.012;2023-12-20T03:24:42;18.00;65.20
5520;DHT22;2782;52.362;10.012;2023-12-20T03:25:43;18.00;65.20
5520;DHT22;2782;52.362;10.012;2023-12-20T03:26:44;18.00;65.30
5520;DHT22;2782;52.362;10.012;2023-12-20T03:27:46;17.90;65.10
5520;DHT22;2782;52.362;10.012;2023-12-20T03:28:46;17.90;65.20
5520;DHT22;2782;52.362;10.012;2023-12-20T03:29:48;17.90;65.10
5520;DHT22;2782;52.362;10.012;2023-12-20T03:30:49;17.90;65.10
5520;DHT22;2782;52.362;10.012;2023-12-20T03:31:50;17.90;65.10
5520;DHT22;2782;52.362;10.012;2023-12-20T03:32:52;17.90;65.20
5520;DHT22;2782;52.362;10.012;2023-12-20T03:33:52;17.90;65.80
5520;DHT22;2782;52.362;10.012;2023-12-20T03:34:54;17.90;65.10
5520;DHT22;2782;52.362;10.012;2023-12-20T03:35:55;17.90;65.10
5520;DHT22;2782;52.362;10.012;2023-12-20T03:36:56;18.00;65.20
5520;DHT22;2782;52.362;10.012;2023-12-20T03:37:58;18.00;65.20
5520;DHT22;2782;52.362;10.012;2023-12-20T03:39:00;17.90;65.10
5520;DHT22;2782;52.362;10.012;2023-12-20T03:40:02;17.90;65.10
5520;DHT22;2782;52.362;10.012;2023-12-20T03:41:04;17.90;65.10
5520;DHT22;2782;52.362;10.012;2023-12-20T03:42:06;17.90;65.10
5520;DHT22;2782;52.362;10.012;2023-12-20T03:43:06;17.90;65.10
5520;DHT22;2782;52.362;10.012;2023-12-20T03:44:08;17.90;65.10
5520;DHT22;2782;52.362;10.012;2023-12-20T03:45:09;17.90;65.10
5520;DHT22;2782;52.362;10.012;2023-12-20T03:46:10;17.90;65.10
5520;DHT22;2782;52.362;10.012;2023-12-20T03:47:11;17.90;65.10
5520;DHT22;2782;52.362;10.012;2023-12-20T03:48:13;17.90;65.00
5520;DHT22;2782;52.362;10.012;2023-12-20T03:49:13;17.90;65.00
5520;DHT22;2782;52.362;10.012;2023-12-20T03:50:16;17.90;65.00
5520;DHT22;2782;52.362;10.012;2023-12-20T03:51:17;17.90;65.00
5520;DHT22;2782;52.362;10.012;2023-12-20T03:52:18;17.90;65.00
5520;DHT22;2782;52.362;10.012;2023-12-20T03:53:20;17.90;65.00
5520;DHT22;2782;52.362;10.012;2023-12-20T03:54:22;17.90;65.00
5520;DHT22;2782;52.362;10.012;2023-12-20T03:55:23;17.90;65.00
5520;DHT22;2782;52.362;10.012;2023-12-20T03:56:23;17.90;65.00
5520;DHT22;2782;52.362;10.012;2023-12-20T03:57:25;17.90;65.00
5520;DHT22;2782;52.362;10.012;2023-12-20T03:58:25;17.90;65.00
5520;DHT22;2782;52.362;10.012;2023-12-20T03:59:27;17.90;65.10
5520;DHT22;2782;52.362;10.012;2023-12-20T04:00:27;17.90;65.00
5520;DHT22;2782;52.362;10.012;2023-12-20T04:01:29;17.90;65.00
5520;DHT22;2782;52.362;10.012;2023-12-20T04:02:30;17.80;64.40
5520;DHT22;2782;52.362;10.012;2023-12-20T04:03:31;17.80;64.90
5520;DHT22;2782;52.362;10.012;2023-12-20T04:04:32;17.80;64.90
5520;DHT22;2782;52.362;10.012;2023-12-20T04:05:34;17.80;64.90
5520;DHT22;2782;52.362;10.012;2023-12-20T04:06:34;17.80;64.90
5520;DHT22;2782;52.362;10.012;2023-12-20T04:07:36;17.80;64.90
5520;DHT22;2782;52.362;10.012;2023-12-20T04:08:38;17.80;64.80
5520;DHT22;2782;52.362;10.012;2023-12-20T04:09:40;17.80;64.90
5520;DHT22;2782;52.362;10.012;2023-12-20T04:10:41;17.80;64.80
5520;DHT22;2782;52.362;10.012;2023-12-20T04:11:42;17.80;64.80
5520;DHT22;2782;52.362;10.012;2023-12-20T04:12:43;17.80;64.90
5520;DHT22;2782;52.362;10.012;2023-12-20T04:13:44;17.80;64.90
5520;DHT22;2782;52.362;10.012;2023-12-20T04:14:45;17.80;64.90
5520;DHT22;2782;52.362;10.012;2023-12-20T04:15:46;17.80;64.80
5520;DHT22;2782;52.362;10.012;2023-12-20T04:16:48;17.80;64.90
5520;DHT22;2782;52.362;10.012;2023-12-20T04:17:49;17.80;64.80
5520;DHT22;2782;52.362;10.012;2023-12-20T04:18:50;17.80;64.90
5520;DHT22;2782;52.362;10.012;2023-12-20T04:19:51;17.80;64.90
5520;DHT22;2782;52.362;10.012;2023-12-20T04:20:52;17.80;64.80
5520;DHT22;2782;52.362;10.012;2023-12-20T04:21:53;17.80;64.80
5520;DHT22;2782;52.362;10.012;2023-12-20T04:22:55;17.80;64.80
5520;DHT22;2782;52.362;10.012;2023-12-20T04:23:57;17.80;64.80
5520;DHT22;2782;52.362;10.012;2023-12-20T04:24:58;17.80;64.80
5520;DHT22;2782;52.362;10.012;2023-12-20T04:25:59;17.80;64.80
5520;DHT22;2782;52.362;10.012;2023-12-20T04:27:00;17.80;64.80
5520;DHT22;2782;52.362;10.012;2023-12-20T04:28:02;17.80;64.80
5520;DHT22;2782;52.362;10.012;2023-12-20T04:29:03;17.70;64.70
5520;DHT22;2782;52.362;10.012;2023-12-20T04:30:07;17.80;64.80
5520;DHT22;2782;52.362;10.012;2023-12-20T04:31:08;17.80;64.80
5520;DHT22;2782;52.362;10.012;2023-12-20T04:32:09;17.70;64.70
5520;DHT22;2782;52.362;10.012;2023-12-20T04:33:10;17.70;64.70
5520;DHT22;2782;52.362;10.012;2023-12-20T04:34:12;17.80;64.70
5520;DHT22;2782;52.362;10.012;2023-12-20T04:35:13;17.70;64.70
5520;DHT22;2782;52.362;10.012;2023-12-20T04:36:14;17.70;64.70
5520;DHT22;2782;52.362;10.012;2023-12-20T04:37:16;17.70;64.70
5520;DHT22;2782;52.362;10.012;2023-12-20T04:38:17;17.70;64.70
5520;DHT22;2782;52.362;10.012;2023-12-20T04:39:19;17.70;64.70
5520;DHT22;2782;52.362;10.012;2023-12-20T04:40:20;17.70;64.70
5520;DHT22;2782;52.362;10.012;2023-12-20T04:41:22;17.70;64.70
5520;DHT22;2782;52.362;10.012;2023-12-20T04:42:22;17.70;64.70
5520;DHT22;2782;52.362;10.012;2023-12-20T04:43:24;17.70;64.70
5520;DHT22;2782;52.362;10.012;2023-12-20T04:44:25;17.70;64.70
5520;DHT22;2782;52.362;10.012;2023-12-20T04:45:27;17.70;64.60
5520;DHT22;2782;52.362;10.012;2023-12-20T04:46:27;17.70;64.60
5520;DHT22;2782;52.362;10.012;2023-12-20T04:47:29;17.70;64.60
5520;DHT22;2782;52.362;10.012;2023-12-20T04:48:30;17.70;64.60
5520;DHT22;2782;52.362;10.012;2023-12-20T04:49:31;17.70;64.60
5520;DHT22;2782;52.362;10.012;2023-12-20T04:50:32;17.70;64.60
5520;DHT22;2782;52.362;10.012;2023-12-20T04:51:34;17.70;64.60
5520;DHT22;2782;52.362;10.012;2023-12-20T04:52:35;17.70;64.60
5520;DHT22;2782;52.362;10.012;2023-12-20T04:53:35;17.70;64.60
5520;DHT22;2782;52.362;10.012;2023-12-20T04:54:38;17.70;64.60
5520;DHT22;2782;52.362;10.012;2023-12-20T04:55:39;17.70;64.60
5520;DHT22;2782;52.362;10.012;2023-12-20T04:56:41;17.70;64.60
5520;DHT22;2782;52.362;10.012;2023-12-20T04:57:41;17.70;64.60
5520;DHT22;2782;52.362;10.012;2023-12-20T04:58:43;17.70;64.60
5520;DHT22;2782;52.362;10.012;2023-12-20T04:59:44;17.70;64.50
5520;DHT22;2782;52.362;10.012;2023-12-20T05:00:46;17.70;64.60
5520;DHT22;2782;52.362;10.012;2023-12-20T05:01:46;17.70;64.50
5520;DHT22;2782;52.362;10.012;2023-12-20T05:02:48;17.70;64.50
5520;DHT22;2782;52.362;10.012;2023-12-20T05:03:49;17.70;64.50
5520;DHT22;2782;52.362;10.012;2023-12-20T05:04:50;17.70;64.50
5520;DHT22;2782;52.362;10.012;2023-12-20T05:05:51;17.70;64.50
5520;DHT22;2782;52.362;10.012;2023-12-20T05:06:52;17.70;64.50
5520;DHT22;2782;52.362;10.012;2023-12-20T05:07:54;17.70;64.50
5520;DHT22;2782;52.362;10.012;2023-12-20T05:08:56;17.70;64.50
5520;DHT22;2782;52.362;10.012;2023-12-20T05:09:58;17.70;64.50
5520;DHT22;2782;52.362;10.012;2023-12-20T05:10:58;17.70;64.60
5520;DHT22;2782;52.362;10.012;2023-12-20T05:12:00;17.70;64.60
5520;DHT22;2782;52.362;10.012;2023-12-20T05:13:01;17.70;64.60
5520;DHT22;2782;52.362;10.012;2023-12-20T05:14:01;17.70;64.80
5520;DHT22;2782;52.362;10.012;2023-12-20T05:15:04;17.70;64.80
5520;DHT22;2782;52.362;10.012;2023-12-20T05:16:06;17.70;64.80
5520;DHT22;2782;52.362;10.012;2023-12-20T05:17:07;17.70;64.80
5520;DHT22;2782;52.362;10.012;2023-12-20T05:18:08;17.80;65.00
5520;DHT22;2782;52.362;10.012;2023-12-20T05:19:09;17.80;65.00
5520;DHT22;2782;52.362;10.012;2023-12-20T05:20:10;17.70;64.80
5520;DHT22;2782;52.362;10.012;2023-12-20T05:21:12;17.80;65.00
5520;DHT22;2782;52.362;10.012;2023-12-20T05:22:12;17.80;65.00
5520;DHT22;2782;52.362;10.012;2023-12-20T05:23:13;17.70;64.90
5520;DHT22;2782;52.362;10.012;2023-12-20T05:24:15;17.80;65.00
5520;DHT22;2782;52.362;10.012;2023-12-20T05:25:17;17.80;65.00
5520;DHT22;2782;52.362;10.012;2023-12-20T05:26:19;17.80;65.10
5520;DHT22;2782;52.362;10.012;2023-12-20T05:27:19;17.80;65.10
5520;DHT22;2782;52.362;10.012;2023-12-20T05:28:21;17.80;65.10
5520;DHT22;2782;52.362;10.012;2023-12-20T05:29:22;17.80;64.90
5520;DHT22;2782;52.362;10.012;2023-12-20T05:30:24;17.80;64.90
5520;DHT22;2782;52.362;10.012;2023-12-20T05:31:24;17.80;65.10
5520;DHT22;2782;52.362;10.012;2023-12-20T05:32:26;17.80;65.30
5520;DHT22;2782;52.362;10.012;2023-12-20T05:33:26;17.80;65.60
5520;DHT22;2782;52.362;10.012;2023-12-20T05:34:28;17.80;65.90
5520;DHT22;2782;52.362;10.012;2023-12-20T05:35:29;17.80;66.00
5520;DHT22;2782;52.362;10.012;2023-12-20T05:36:30;17.80;66.00
5520;DHT22;2782;52.362;10.012;2023-12-20T05:37:31;17.80;66.10
5520;DHT22;2782;52.362;10.012;2023-12-20T05:38:33;17.80;66.20
5520;DHT22;2782;52.362;10.012;2023-12-20T05:39:34;17.80;66.20
5520;DHT22;2782;52.362;10.012;2023-12-20T05:40:37;17.90;66.50
5520;DHT22;2782;52.362;10.012;2023-12-20T05:41:38;17.90;66.30
5520;DHT22;2782;52.362;10.012;2023-12-20T05:42:39;17.90;66.10
5520;DHT22;2782;52.362;10.012;2023-12-20T05:43:41;17.90;66.20
5520;DHT22;2782;52.362;10.012;2023-12-20T05:44:41;17.90;66.20
5520;DHT22;2782;52.362;10.012;2023-12-20T05:45:43;17.90;66.40
5520;DHT22;2782;52.362;10.012;2023-12-20T05:46:44;17.90;66.60
5520;DHT22;2782;52.362;10.012;2023-12-20T05:47:45;17.90;66.90
5520;DHT22;2782;52.362;10.012;2023-12-20T05:48:46;18.00;67.30
5520;DHT22;2782;52.362;10.012;2023-12-20T05:49:47;18.00;67.20
5520;DHT22;2782;52.362;10.012;2023-12-20T05:50:48;18.00;67.20
5520;DHT22;2782;52.362;10.012;2023-12-20T05:51:50;18.00;67.10
5520;DHT22;2782;52.362;10.012;2023-12-20T05:52:51;18.00;67.10
5520;DHT22;2782;52.362;10.012;2023-12-20T05:53:53;18.10;67.30
5520;DHT22;2782;52.362;10.012;2023-12-20T05:54:53;18.10;67.40
5520;DHT22;2782;52.362;10.012;2023-12-20T05:55:57;18.10;67.30
5520;DHT22;2782;52.362;10.012;2023-12-20T05:56:58;18.10;67.60
5520;DHT22;2782;52.362;10.012;2023-12-20T05:57:59;18.10;67.60
5520;DHT22;2782;52.362;10.012;2023-12-20T05:59:00;18.10;67.30
5520;DHT22;2782;52.362;10.012;2023-12-20T06:00:02;18.20;67.40
5520;DHT22;2782;52.362;10.012;2023-12-20T06:01:04;18.10;68.20
5520;DHT22;2782;52.362;10.012;2023-12-20T06:02:06;18.10;68.90
5520;DHT22;2782;52.362;10.012;2023-12-20T06:03:06;18.10;68.00
5520;DHT22;2782;52.362;10.012;2023-12-20T06:04:08;18.10;67.80
5520;DHT22;2782;52.362;10.012;2023-12-20T06:05:09;18.10;67.60
5520;DHT22;2782;52.362;10.012;2023-12-20T06:06:11;18.10;67.60
5520;DHT22;2782;52.362;10.012;2023-12-20T06:07:13;18.10;68.00
5520;DHT22;2782;52.362;10.012;2023-12-20T06:08:16;18.20;67.60
5520;DHT22;2782;52.362;10.012;2023-12-20T06:09:16;18.10;67.70
5520;DHT22;2782;52.362;10.012;2023-12-20T06:10:17;18.20;68.30
5520;DHT22;2782;52.362;10.012;2023-12-20T06:11:20;18.10;67.90
5520;DHT22;2782;52.362;10.012;2023-12-20T06:12:21;18.10;67.40
5520;DHT22;2782;52.362;10.012;2023-12-20T06:13:24;18.10;67.40
5520;DHT22;2782;52.362;10.012;2023-12-20T06:14:25;18.10;67.20
5520;DHT22;2782;52.362;10.012;2023-12-20T06:15:26;18.10;67.20
5520;DHT22;2782;52.362;10.012;2023-12-20T06:16:27;18.10;67.10
5520;DHT22;2782;52.362;10.012;2023-12-20T06:17:29;18.10;67.00
5520;DHT22;2782;52.362;10.012;2023-12-20T06:18:31;18.20;67.10
5520;DHT22;2782;52.362;10.012;2023-12-20T06:19:33;18.20;67.50
5520;DHT22;2782;52.362;10.012;2023-12-20T06:20:33;18.20;67.90
5520;DHT22;2782;52.362;10.012;2023-12-20T06:21:35;18.20;67.90
5520;DHT22;2782;52.362;10.012;2023-12-20T06:22:36;18.20;68.20
5520;DHT22;2782;52.362;10.012;2023-12-20T06:23:37;18.20;66.70
5520;DHT22;2782;52.362;10.012;2023-12-20T06:24:38;18.20;65.60
5520;DHT22;2782;52.362;10.012;2023-12-20T06:25:40;18.20;65.60
5520;DHT22;2782;52.362;10.012;2023-12-20T06:26:42;18.20;66.40
5520;DHT22;2782;52.362;10.012;2023-12-20T06:27:44;18.20;67.40
5520;DHT22;2782;52.362;10.012;2023-12-20T06:28:46;18.20;67.70
5520;DHT22;2782;52.362;10.012;2023-12-20T06:29:47;18.20;68.00
5520;DHT22;2782;52.362;10.012;2023-12-20T06:30:48;18.20;68.00
5520;DHT22;2782;52.362;10.012;2023-12-20T06:31:50;18.20;67.90
5520;DHT22;2782;52.362;10.012;2023-12-20T06:32:50;18.20;67.70
5520;DHT22;2782;52.362;10.012;2023-12-20T06:33:53;18.20;67.60
5520;DHT22;2782;52.362;10.012;2023-12-20T06:34:57;18.30;68.00
5520;DHT22;2782;52.362;10.012;2023-12-20T06:35:59;18.20;68.30
5520;DHT22;2782;52.362;10.012;2023-12-20T06:37:00;18.20;68.10